sensor_id;sensor_type;location;lat;lon;timestamp;temperature;humidity
7411;DHT22;3747;48.628;9.058;2023-07-24T00:00:49;17.10;99.90
7411;DHT22;3747;48.628;9.058;2023-07-24T00:03:16;16.90;99.90
7411;DHT22;3747;48.628;9.058;2023-07-24T00:05:43;17.00;99.90
7411;DHT22;3747;48.628;9.058;2023-07-24T00:08:09;17.20;99.90
7411;DHT22;3747;48.628;9.058;2023-07-24T00:10:36;17.50;99.90
7411;DHT22;3747;48.628;9.058;2023-07-24T00:13:04;17.80;99.90
7411;DHT22;3747;48.628;9.058;2023-07-24T00:15:31;17.90;99.90
7411;DHT22;3747;48.628;9.058;2023-07-24T00:17:57;17.90;99.90
7411;DHT22;3747;48.628;9.058;2023-07-24T00:20:24;17.90;99.90
7411;DHT22;3747;48.628;9.058;2023-07-24T00:22:51;17.90;99.90
7411;DHT22;3747;48.628;9.058;2023-07-24T00:25:18;17.70;99.90
7411;DHT22;3747;48.628;9.058;2023-07-24T00:27:44;17.50;99.90
7411;DHT22;3747;48.628;9.058;2023-07-24T00:30:12;17.20;99.90
7411;DHT22;3747;48.628;9.058;2023-07-24T00:32:39;17.00;99.90
7411;DHT22;3747;48.628;9.058;2023-07-24T00:35:07;16.80;99.90
7411;DHT22;3747;48.628;9.058;2023-07-24T00:37:34;16.70;99.90
7411;DHT22;3747;48.628;9.058;2023-07-24T00:40:01;16.60;99.90
7411;DHT22;3747;48.628;9.058;2023-07-24T00:42:28;16.70;99.90
7411;DHT22;3747;48.628;9.058;2023-07-24T00:44:54;16.80;99.90
7411;DHT22;3747;48.628;9.058;2023-07-24T00:47:22;16.80;99.90
7411;DHT22;3747;48.628;9.058;2023-07-24T00:49:50;17.10;99.90
7411;DHT22;3747;48.628;9.058;2023-07-24T00:52:16;17.20;99.90
7411;DHT22;3747;48.628;9.058;2023-07-24T00:54:44;17.40;99.90
7411;DHT22;3747;48.628;9.058;2023-07-24T00:57:12;17.50;99.90
7411;DHT22;3747;48.628;9.058;2023-07-24T00:59:39;17.40;99.90
7411;DHT22;3747;48.628;9.058;2023-07-24T01:02:07;17.40;99.90
7411;DHT22;3747;48.628;9.058;2023-07-24T01:04:35;17.30;99.90
7411;DHT22;3747;48.628;9.058;2023-07-24T01:07:02;17.30;99.90
7411;DHT22;3747;48.628;9.058;2023-07-24T01:09:29;17.20;99.90
7411;DHT22;3747;48.628;9.058;2023-07-24T01:11:58;17.20;99.90
7411;DHT22;3747;48.628;9.058;2023-07-24T01:14:31;17.20;99.90
7411;DHT22;3747;48.628;9.058;2023-07-24T01:17:00;17.10;99.90
7411;DHT22;3747;48.628;9.058;2023-07-24T01:19:37;16.90;99.90
7411;DHT22;3747;48.628;9.058;2023-07-24T01:22:14;16.90;99.90
7411;DHT22;3747;48.628;9.058;2023-07-24T01:24:59;16.90;99.90
7411;DHT22;3747;48.628;9.058;2023-07-24T01:27:28;16.90;99.90
7411;DHT22;3747;48.628;9.058;2023-07-24T01:29:54;16.90;99.90
7411;DHT22;3747;48.628;9.058;2023-07-24T01:32:21;16.80;99.90
7411;DHT22;3747;48.628;9.058;2023-07-24T01:34:48;16.80;99.90
7411;DHT22;3747;48.628;9.058;2023-07-24T01:37:16;16.70;99.90
7411;DHT22;3747;48.628;9.058;2023-07-24T01:39:44;16.60;99.90
7411;DHT22;3747;48.628;9.058;2023-07-24T01:42:11;16.40;99.90
7411;DHT22;3747;48.628;9.058;2023-07-24T01:44:40;16.30;99.90
7411;DHT22;3747;48.628;9.058;2023-07-24T01:47:07;16.50;99.90
7411;DHT22;3747;48.628;9.058;2023-07-24T01:49:34;16.70;99.90
7411;DHT22;3747;48.628;9.058;2023-07-24T01:52:00;16.90;99.90
7411;DHT22;3747;48.628;9.058;2023-07-24T01:54:27;17.10;99.90
7411;DHT22;3747;48.628;9.058;2023-07-24T01:56:54;17.20;99.90
7411;DHT22;3747;48.628;9.058;2023-07-24T01:59:20;17.30;99.90
7411;DHT22;3747;48.628;9.058;2023-07-24T02:01:48;17.40;99.90
7411;DHT22;3747;48.628;9.058;2023-07-24T02:04:15;17.40;99.90
7411;DHT22;3747;48.628;9.058;2023-07-24T02:06:42;17.40;99.90
7411;DHT22;3747;48.628;9.058;2023-07-24T02:09:09;17.40;99.90
7411;DHT22;3747;48.628;9.058;2023-07-24T02:11:36;17.30;99.90
7411;DHT22;3747;48.628;9.058;2023-07-24T02:14:03;17.20;99.90
7411;DHT22;3747;48.628;9.058;2023-07-24T02:16:30;16.90;99.90
7411;DHT22;3747;48.628;9.058;2023-07-24T02:18:58;16.80;99.90
7411;DHT22;3747;48.628;9.058;2023-07-24T02:21:24;16.70;99.90
7411;DHT22;3747;48.628;9.058;2023-07-24T02:23:51;16.80;99.90
7411;DHT22;3747;48.628;9.058;2023-07-24T02:26:18;16.80;99.90
7411;DHT22;3747;48.628;9.058;2023-07-24T02:28:44;16.70;99.90
7411;DHT22;3747;48.628;9.058;2023-07-24T02:31:11;16.50;99.90
7411;DHT22;3747;48.628;9.058;2023-07-24T02:33:38;16.20;99.90
7411;DHT22;3747;48.628;9.058;2023-07-24T02:36:06;15.90;99.90
7411;DHT22;3747;48.628;9.058;2023-07-24T02:38:33;15.70;99.90
7411;DHT22;3747;48.628;9.058;2023-07-24T02:40:59;15.50;99.90
7411;DHT22;3747;48.628;9.058;2023-07-24T02:43:26;15.30;99.90
7411;DHT22;3747;48.628;9.058;2023-07-24T02:45:53;15.30;99.90
7411;DHT22;3747;48.628;9.058;2023-07-24T02:48:19;15.10;99.90
7411;DHT22;3747;48.628;9.058;2023-07-24T02:50:47;15.00;99.90
7411;DHT22;3747;48.628;9.058;2023-07-24T02:53:15;14.90;99.90
7411;DHT22;3747;48.628;9.058;2023-07-24T02:55:42;14.70;99.90
7411;DHT22;3747;48.628;9.058;2023-07-24T02:58:10;14.70;99.90
7411;DHT22;3747;48.628;9.058;2023-07-24T03:00:37;14.70;99.90
7411;DHT22;3747;48.628;9.058;2023-07-24T03:03:04;14.60;99.90
7411;DHT22;3747;48.628;9.058;2023-07-24T03:05:31;14.40;99.90
7411;DHT22;3747;48.628;9.058;2023-07-24T03:07:57;14.20;99.90
7411;DHT22;3747;48.628;9.058;2023-07-24T03:10:26;14.30;99.90
7411;DHT22;3747;48.628;9.058;2023-07-24T03:12:52;14.20;99.90
7411;DHT22;3747;48.628;9.058;2023-07-24T03:15:19;14.10;99.90
7411;DHT22;3747;48.628;9.058;2023-07-24T03:17:46;14.10;99.90
7411;DHT22;3747;48.628;9.058;2023-07-24T03:20:14;14.00;99.90
7411;DHT22;3747;48.628;9.058;2023-07-24T03:22:42;13.90;99.90
7411;DHT22;3747;48.628;9.058;2023-07-24T03:25:09;13.80;99.90
7411;DHT22;3747;48.628;9.058;2023-07-24T03:27:37;13.80;99.90
7411;DHT22;3747;48.628;9.058;2023-07-24T03:30:05;13.70;99.90
7411;DHT22;3747;48.628;9.058;2023-07-24T03:32:31;13.80;99.90
7411;DHT22;3747;48.628;9.058;2023-07-24T03:34:58;13.90;99.90
7411;DHT22;3747;48.628;9.058;2023-07-24T03:37:25;14.00;99.90
7411;DHT22;3747;48.628;9.058;2023-07-24T03:39:52;14.00;99.90
7411;DHT22;3747;48.628;9.058;2023-07-24T03:42:25;14.10;99.90
7411;DHT22;3747;48.628;9.058;2023-07-24T03:44:54;14.20;99.90
7411;DHT22;3747;48.628;9.058;2023-07-24T03:47:21;14.30;99.90
7411;DHT22;3747;48.628;9.058;2023-07-24T03:49:48;14.40;99.90
7411;DHT22;3747;48.628;9.058;2023-07-24T03:52:15;14.50;99.90
7411;DHT22;3747;48.628;9.058;2023-07-24T03:54:41;14.80;99.90
7411;DHT22;3747;48.628;9.058;2023-07-24T03:57:08;15.00;99.90
7411;DHT22;3747;48.628;9.058;2023-07-24T03:59:35;15.10;99.90
7411;DHT22;3747;48.628;9.058;2023-07-24T04:02:03;15.30;99.90
7411;DHT22;3747;48.628;9.058;2023-07-24T04:04:30;15.40;99.90
7411;DHT22;3747;48.628;9.058;2023-07-24T04:06:57;15.50;99.90
7411;DHT22;3747;48.628;9.058;2023-07-24T04:09:24;15.60;99.90
7411;DHT22;3747;48.628;9.058;2023-07-24T04:11:51;15.60;99.90
7411;DHT22;3747;48.628;9.058;2023-07-24T04:14:17;15.70;99.90
7411;DHT22;3747;48.628;9.058;2023-07-24T04:16:44;15.80;99.90
7411;DHT22;3747;48.628;9.058;2023-07-24T04:19:12;15.80;99.90
7411;DHT22;3747;48.628;9.058;2023-07-24T04:21:39;15.90;99.90
7411;DHT22;3747;48.628;9.058;2023-07-24T04:24:06;16.00;99.90
7411;DHT22;3747;48.628;9.058;2023-07-24T04:26:33;16.10;99.90
7411;DHT22;3747;48.628;9.058;2023-07-24T04:28:59;16.20;99.90
7411;DHT22;3747;48.628;9.058;2023-07-24T04:31:26;16.30;99.90
7411;DHT22;3747;48.628;9.058;2023-07-24T04:33:53;16.40;99.90
7411;DHT22;3747;48.628;9.058;2023-07-24T04:36:21;16.50;99.90
7411;DHT22;3747;48.628;9.058;2023-07-24T04:38:47;16.50;99.90
7411;DHT22;3747;48.628;9.058;2023-07-24T04:41:14;16.60;99.90
7411;DHT22;3747;48.628;9.058;2023-07-24T04:43:41;16.60;99.90
7411;DHT22;3747;48.628;9.058;2023-07-24T04:46:08;16.70;99.90
7411;DHT22;3747;48.628;9.058;2023-07-24T04:48:34;16.80;99.90
7411;DHT22;3747;48.628;9.058;2023-07-24T04:51:01;16.90;99.90
7411;DHT22;3747;48.628;9.058;2023-07-24T04:53:29;17.00;99.90
7411;DHT22;3747;48.628;9.058;2023-07-24T04:55:56;17.10;99.90
7411;DHT22;3747;48.628;9.058;2023-07-24T04:58:23;17.20;99.90
7411;DHT22;3747;48.628;9.058;2023-07-24T05:00:50;17.20;99.90
7411;DHT22;3747;48.628;9.058;2023-07-24T05:03:16;17.30;99.90
7411;DHT22;3747;48.628;9.058;2023-07-24T05:05:43;17.40;99.90
7411;DHT22;3747;48.628;9.058;2023-07-24T05:08:10;17.50;99.90
7411;DHT22;3747;48.628;9.058;2023-07-24T05:10:38;17.60;99.90
7411;DHT22;3747;48.628;9.058;2023-07-24T05:13:05;17.70;99.90
7411;DHT22;3747;48.628;9.058;2023-07-24T05:15:31;17.80;99.90
7411;DHT22;3747;48.628;9.058;2023-07-24T05:17:58;17.90;99.90
7411;DHT22;3747;48.628;9.058;2023-07-24T05:20:25;18.00;99.90
7411;DHT22;3747;48.628;9.058;2023-07-24T05:22:52;18.20;99.90
7411;DHT22;3747;48.628;9.058;2023-07-24T05:25:18;18.20;99.90
7411;DHT22;3747;48.628;9.058;2023-07-24T05:27:46;18.30;99.90
7411;DHT22;3747;48.628;9.058;2023-07-24T05:30:13;18.40;99.90
7411;DHT22;3747;48.628;9.058;2023-07-24T05:32:41;18.10;99.90
7411;DHT22;3747;48.628;9.058;2023-07-24T05:35:08;17.90;99.90
7411;DHT22;3747;48.628;9.058;2023-07-24T05:37:34;17.80;99.90
7411;DHT22;3747;48.628;9.058;2023-07-24T05:40:01;17.90;99.90
7411;DHT22;3747;48.628;9.058;2023-07-24T05:42:28;18.10;99.90
7411;DHT22;3747;48.628;9.058;2023-07-24T05:44:56;18.30;99.90
7411;DHT22;3747;48.628;9.058;2023-07-24T05:47:22;18.30;99.90
7411;DHT22;3747;48.628;9.058;2023-07-24T05:49:49;18.40;99.90
7411;DHT22;3747;48.628;9.058;2023-07-24T05:52:16;18.50;99.90
7411;DHT22;3747;48.628;9.058;2023-07-24T05:54:43;18.60;99.90
7411;DHT22;3747;48.628;9.058;2023-07-24T05:57:10;18.60;99.90
7411;DHT22;3747;48.628;9.058;2023-07-24T05:59:36;18.60;99.90
7411;DHT22;3747;48.628;9.058;2023-07-24T06:02:05;18.50;99.90
7411;DHT22;3747;48.628;9.058;2023-07-24T06:04:32;18.40;99.90
7411;DHT22;3747;48.628;9.058;2023-07-24T06:06:59;18.30;99.90
7411;DHT22;3747;48.628;9.058;2023-07-24T06:09:26;18.40;99.90
7411;DHT22;3747;48.628;9.058;2023-07-24T06:11:52;18.40;99.90
7411;DHT22;3747;48.628;9.058;2023-07-24T06:14:19;18.40;99.90
7411;DHT22;3747;48.628;9.058;2023-07-24T06:16:46;18.40;99.90
7411;DHT22;3747;48.628;9.058;2023-07-24T06:19:14;18.40;99.90
7411;DHT22;3747;48.628;9.058;2023-07-24T06:21:41;18.40;99.90
7411;DHT22;3747;48.628;9.058;2023-07-24T06:24:08;18.40;99.90
7411;DHT22;3747;48.628;9.058;2023-07-24T06:26:37;18.50;99.90
7411;DHT22;3747;48.628;9.058;2023-07-24T06:29:04;18.70;99.90
7411;DHT22;3747;48.628;9.058;2023-07-24T06:31:31;18.80;99.90
7411;DHT22;3747;48.628;9.058;2023-07-24T06:33:57;18.90;99.90
7411;DHT22;3747;48.628;9.058;2023-07-24T06:36:25;19.00;99.90
7411;DHT22;3747;48.628;9.058;2023-07-24T06:38:52;19.20;99.90
7411;DHT22;3747;48.628;9.058;2023-07-24T06:41:19;19.30;99.90
7411;DHT22;3747;48.628;9.058;2023-07-24T06:43:48;19.50;99.90
7411;DHT22;3747;48.628;9.058;2023-07-24T06:46:15;19.70;99.90
7411;DHT22;3747;48.628;9.058;2023-07-24T06:48:42;19.90;99.90
7411;DHT22;3747;48.628;9.058;2023-07-24T06:51:08;20.20;99.90
7411;DHT22;3747;48.628;9.058;2023-07-24T06:53:36;20.40;99.90
7411;DHT22;3747;48.628;9.058;2023-07-24T06:56:03;20.60;99.90
7411;DHT22;3747;48.628;9.058;2023-07-24T06:58:30;20.70;99.90
7411;DHT22;3747;48.628;9.058;2023-07-24T07:00:57;20.80;99.90
7411;DHT22;3747;48.628;9.058;2023-07-24T07:03:23;20.90;99.90
7411;DHT22;3747;48.628;9.058;2023-07-24T07:05:50;20.90;99.90
7411;DHT22;3747;48.628;9.058;2023-07-24T07:08:17;20.80;99.90
7411;DHT22;3747;48.628;9.058;2023-07-24T07:10:45;20.70;99.90
7411;DHT22;3747;48.628;9.058;2023-07-24T07:13:13;20.90;99.90
7411;DHT22;3747;48.628;9.058;2023-07-24T07:15:40;21.20;99.90
7411;DHT22;3747;48.628;9.058;2023-07-24T07:18:06;21.50;99.90
7411;DHT22;3747;48.628;9.058;2023-07-24T07:20:33;21.50;99.90
7411;DHT22;3747;48.628;9.058;2023-07-24T07:23:00;21.60;99.90
7411;DHT22;3747;48.628;9.058;2023-07-24T07:25:26;21.50;99.90
7411;DHT22;3747;48.628;9.058;2023-07-24T07:27:54;21.50;99.90
7411;DHT22;3747;48.628;9.058;2023-07-24T07:30:21;21.50;99.90
7411;DHT22;3747;48.628;9.058;2023-07-24T07:32:48;21.50;99.90
7411;DHT22;3747;48.628;9.058;2023-07-24T07:35:15;21.50;99.90
7411;DHT22;3747;48.628;9.058;2023-07-24T07:37:41;21.50;99.90
7411;DHT22;3747;48.628;9.058;2023-07-24T07:40:09;21.50;99.90
7411;DHT22;3747;48.628;9.058;2023-07-24T07:42:36;21.60;99.90
7411;DHT22;3747;48.628;9.058;2023-07-24T07:45:05;21.70;99.90
7411;DHT22;3747;48.628;9.058;2023-07-24T07:47:31;21.80;99.90
7411;DHT22;3747;48.628;9.058;2023-07-24T07:49:58;21.80;99.90
7411;DHT22;3747;48.628;9.058;2023-07-24T07:52:25;21.50;99.90
7411;DHT22;3747;48.628;9.058;2023-07-24T07:54:51;21.50;99.90
7411;DHT22;3747;48.628;9.058;2023-07-24T07:57:18;21.20;99.90
7411;DHT22;3747;48.628;9.058;2023-07-24T07:59:45;21.00;99.90
7411;DHT22;3747;48.628;9.058;2023-07-24T08:02:13;20.60;99.90
7411;DHT22;3747;48.628;9.058;2023-07-24T08:04:39;20.30;99.90
7411;DHT22;3747;48.628;9.058;2023-07-24T08:07:06;19.80;99.90
7411;DHT22;3747;48.628;9.058;2023-07-24T08:09:33;19.30;99.90
7411;DHT22;3747;48.628;9.058;2023-07-24T08:12:01;18.90;99.90
7411;DHT22;3747;48.628;9.058;2023-07-24T08:14:28;18.50;99.90
7411;DHT22;3747;48.628;9.058;2023-07-24T08:16:54;18.30;99.90
7411;DHT22;3747;48.628;9.058;2023-07-24T08:19:22;18.00;99.90
7411;DHT22;3747;48.628;9.058;2023-07-24T08:21:49;17.80;99.90
7411;DHT22;3747;48.628;9.058;2023-07-24T08:24:16;17.80;99.90
7411;DHT22;3747;48.628;9.058;2023-07-24T08:26:42;17.70;99.90
7411;DHT22;3747;48.628;9.058;2023-07-24T08:29:09;17.60;99.90
7411;DHT22;3747;48.628;9.058;2023-07-24T08:31:36;17.60;99.90
7411;DHT22;3747;48.628;9.058;2023-07-24T08:34:02;17.50;99.90
7411;DHT22;3747;48.628;9.058;2023-07-24T08:36:30;17.50;99.90
7411;DHT22;3747;48.628;9.058;2023-07-24T08:38:57;17.60;99.90
7411;DHT22;3747;48.628;9.058;2023-07-24T08:41:24;17.60;99.90
7411;DHT22;3747;48.628;9.058;2023-07-24T08:43:51;17.70;99.90
7411;DHT22;3747;48.628;9.058;2023-07-24T08:46:19;17.80;99.90
7411;DHT22;3747;48.628;9.058;2023-07-24T08:48:47;17.90;99.90
7411;DHT22;3747;48.628;9.058;2023-07-24T08:51:15;18.00;99.90
7411;DHT22;3747;48.628;9.058;2023-07-24T08:53:45;18.10;99.90
7411;DHT22;3747;48.628;9.058;2023-07-24T08:56:12;18.10;99.90
7411;DHT22;3747;48.628;9.058;2023-07-24T08:58:39;18.20;99.90
7411;DHT22;3747;48.628;9.058;2023-07-24T09:01:07;18.20;99.90
7411;DHT22;3747;48.628;9.058;2023-07-24T09:03:34;18.30;99.90
7411;DHT22;3747;48.628;9.058;2023-07-24T09:06:01;18.40;99.90
7411;DHT22;3747;48.628;9.058;2023-07-24T09:08:29;18.50;99.90
7411;DHT22;3747;48.628;9.058;2023-07-24T09:10:58;18.80;99.90
7411;DHT22;3747;48.628;9.058;2023-07-24T09:13:25;19.10;99.90
7411;DHT22;3747;48.628;9.058;2023-07-24T09:15:52;19.50;99.90
7411;DHT22;3747;48.628;9.058;2023-07-24T09:18:19;19.70;99.90
7411;DHT22;3747;48.628;9.058;2023-07-24T09:20:46;20.00;99.90
7411;DHT22;3747;48.628;9.058;2023-07-24T09:23:14;20.30;99.90
7411;DHT22;3747;48.628;9.058;2023-07-24T09:25:43;20.20;99.90
7411;DHT22;3747;48.628;9.058;2023-07-24T09:28:12;20.20;99.90
7411;DHT22;3747;48.628;9.058;2023-07-24T09:30:40;20.10;99.90
7411;DHT22;3747;48.628;9.058;2023-07-24T09:33:07;20.00;99.90
7411;DHT22;3747;48.628;9.058;2023-07-24T09:35:34;19.80;99.90
7411;DHT22;3747;48.628;9.058;2023-07-24T09:38:05;19.70;99.90
7411;DHT22;3747;48.628;9.058;2023-07-24T09:40:42;19.60;99.90
7411;DHT22;3747;48.628;9.058;2023-07-24T09:43:22;19.50;99.90
7411;DHT22;3747;48.628;9.058;2023-07-24T09:45:49;19.40;99.90
7411;DHT22;3747;48.628;9.058;2023-07-24T09:48:18;19.30;99.90
7411;DHT22;3747;48.628;9.058;2023-07-24T09:50:46;19.30;99.90
7411;DHT22;3747;48.628;9.058;2023-07-24T09:53:18;19.30;99.90
7411;DHT22;3747;48.628;9.058;2023-07-24T09:55:51;19.10;99.90
7411;DHT22;3747;48.628;9.058;2023-07-24T09:58:20;19.10;99.90
7411;DHT22;3747;48.628;9.058;2023-07-24T10:00:48;18.90;99.90
7411;DHT22;3747;48.628;9.058;2023-07-24T10:03:16;18.70;99.90
7411;DHT22;3747;48.628;9.058;2023-07-24T10:05:44;18.50;99.90
7411;DHT22;3747;48.628;9.058;2023-07-24T10:08:11;18.40;99.90
7411;DHT22;3747;48.628;9.058;2023-07-24T10:10:38;18.30;99.90
7411;DHT22;3747;48.628;9.058;2023-07-24T10:13:06;18.20;99.90
7411;DHT22;3747;48.628;9.058;2023-07-24T10:15:35;18.10;99.90
7411;DHT22;3747;48.628;9.058;2023-07-24T10:18:04;18.00;99.90
7411;DHT22;3747;48.628;9.058;2023-07-24T10:20:34;17.90;99.90
7411;DHT22;3747;48.628;9.058;2023-07-24T10:23:02;17.90;99.90
7411;DHT22;3747;48.628;9.058;2023-07-24T10:25:30;17.80;99.90
7411;DHT22;3747;48.628;9.058;2023-07-24T10:28:01;17.70;99.90
7411;DHT22;3747;48.628;9.058;2023-07-24T10:30:31;17.70;99.90
7411;DHT22;3747;48.628;9.058;2023-07-24T10:33:05;17.60;99.90
7411;DHT22;3747;48.628;9.058;2023-07-24T10:35:43;17.50;99.90
7411;DHT22;3747;48.628;9.058;2023-07-24T10:38:10;17.40;99.90
7411;DHT22;3747;48.628;9.058;2023-07-24T10:40:37;17.40;99.90
7411;DHT22;3747;48.628;9.058;2023-07-24T10:43:07;17.30;99.90
7411;DHT22;3747;48.628;9.058;2023-07-24T10:45:42;17.30;99.90
7411;DHT22;3747;48.628;9.058;2023-07-24T10:48:10;17.40;99.90
7411;DHT22;3747;48.628;9.058;2023-07-24T10:50:38;17.30;99.90
7411;DHT22;3747;48.628;9.058;2023-07-24T10:53:05;17.30;99.90
7411;DHT22;3747;48.628;9.058;2023-07-24T10:55:32;17.30;99.90
7411;DHT22;3747;48.628;9.058;2023-07-24T10:57:59;17.30;99.90
7411;DHT22;3747;48.628;9.058;2023-07-24T11:00:26;17.20;99.90
7411;DHT22;3747;48.628;9.058;2023-07-24T11:02:53;17.20;99.90
7411;DHT22;3747;48.628;9.058;2023-07-24T11:05:21;17.20;99.90
7411;DHT22;3747;48.628;9.058;2023-07-24T11:07:48;17.20;99.90
7411;DHT22;3747;48.628;9.058;2023-07-24T11:10:16;17.10;99.90
7411;DHT22;3747;48.628;9.058;2023-07-24T11:12:42;17.10;99.90
7411;DHT22;3747;48.628;9.058;2023-07-24T11:15:10;17.10;99.90
7411;DHT22;3747;48.628;9.058;2023-07-24T11:17:37;17.10;99.90
7411;DHT22;3747;48.628;9.058;2023-07-24T11:20:30;17.10;99.90
7411;DHT22;3747;48.628;9.058;2023-07-24T11:22:58;17.10;99.90
7411;DHT22;3747;48.628;9.058;2023-07-24T11:25:24;17.20;99.90
7411;DHT22;3747;48.628;9.058;2023-07-24T11:27:51;17.30;99.90
7411;DHT22;3747;48.628;9.058;2023-07-24T11:30:20;17.30;99.90
7411;DHT22;3747;48.628;9.058;2023-07-24T11:32:48;17.50;99.90
7411;DHT22;3747;48.628;9.058;2023-07-24T11:35:15;17.70;99.90
7411;DHT22;3747;48.628;9.058;2023-07-24T11:37:43;18.10;99.90
7411;DHT22;3747;48.628;9.058;2023-07-24T11:40:11;18.70;99.90
7411;DHT22;3747;48.628;9.058;2023-07-24T11:42:42;19.00;99.90
7411;DHT22;3747;48.628;9.058;2023-07-24T11:45:09;19.30;99.90
7411;DHT22;3747;48.628;9.058;2023-07-24T11:47:43;19.50;99.90
7411;DHT22;3747;48.628;9.058;2023-07-24T11:50:10;19.50;99.90
7411;DHT22;3747;48.628;9.058;2023-07-24T11:52:38;19.30;99.90
7411;DHT22;3747;48.628;9.058;2023-07-24T11:55:07;19.30;99.90
7411;DHT22;3747;48.628;9.058;2023-07-24T11:57:34;19.30;99.90
7411;DHT22;3747;48.628;9.058;2023-07-24T12:00:02;19.30;99.90
7411;DHT22;3747;48.628;9.058;2023-07-24T12:02:29;19.60;99.90
7411;DHT22;3747;48.628;9.058;2023-07-24T12:04:59;20.10;99.90
7411;DHT22;3747;48.628;9.058;2023-07-24T12:07:31;20.80;99.90
7411;DHT22;3747;48.628;9.058;2023-07-24T12:09:59;21.00;99.90
7411;DHT22;3747;48.628;9.058;2023-07-24T12:12:37;21.00;99.90
7411;DHT22;3747;48.628;9.058;2023-07-24T12:15:04;21.80;99.90
7411;DHT22;3747;48.628;9.058;2023-07-24T12:17:31;21.90;99.90
7411;DHT22;3747;48.628;9.058;2023-07-24T12:19:58;22.50;99.90
7411;DHT22;3747;48.628;9.058;2023-07-24T12:22:24;23.10;99.90
7411;DHT22;3747;48.628;9.058;2023-07-24T12:24:51;23.00;99.90
7411;DHT22;3747;48.628;9.058;2023-07-24T12:27:18;23.00;99.90
7411;DHT22;3747;48.628;9.058;2023-07-24T12:29:46;22.50;99.90
7411;DHT22;3747;48.628;9.058;2023-07-24T12:32:12;22.30;99.90
7411;DHT22;3747;48.628;9.058;2023-07-24T12:34:39;21.90;99.90
7411;DHT22;3747;48.628;9.058;2023-07-24T12:37:06;21.90;99.90
7411;DHT22;3747;48.628;9.058;2023-07-24T12:39:32;21.90;99.90
7411;DHT22;3747;48.628;9.058;2023-07-24T12:41:59;21.90;99.90
7411;DHT22;3747;48.628;9.058;2023-07-24T12:44:26;22.20;99.90
7411;DHT22;3747;48.628;9.058;2023-07-24T12:46:54;22.60;99.90
7411;DHT22;3747;48.628;9.058;2023-07-24T12:49:20;23.20;99.90
7411;DHT22;3747;48.628;9.058;2023-07-24T12:51:47;23.30;99.90
7411;DHT22;3747;48.628;9.058;2023-07-24T12:54:14;23.20;99.90
7411;DHT22;3747;48.628;9.058;2023-07-24T12:56:40;22.90;99.90
7411;DHT22;3747;48.628;9.058;2023-07-24T12:59:07;23.20;99.90
7411;DHT22;3747;48.628;9.058;2023-07-24T13:01:34;23.40;99.90
7411;DHT22;3747;48.628;9.058;2023-07-24T13:04:02;23.40;99.90
7411;DHT22;3747;48.628;9.058;2023-07-24T13:06:29;23.40;99.90
7411;DHT22;3747;48.628;9.058;2023-07-24T13:08:55;23.60;99.90
7411;DHT22;3747;48.628;9.058;2023-07-24T13:11:22;23.60;99.90
7411;DHT22;3747;48.628;9.058;2023-07-24T13:13:49;23.80;99.90
7411;DHT22;3747;48.628;9.058;2023-07-24T13:16:16;23.80;99.90
7411;DHT22;3747;48.628;9.058;2023-07-24T13:18:43;23.80;99.90
7411;DHT22;3747;48.628;9.058;2023-07-24T13:21:11;24.40;99.90
7411;DHT22;3747;48.628;9.058;2023-07-24T13:23:39;25.20;99.90
7411;DHT22;3747;48.628;9.058;2023-07-24T13:26:06;25.20;99.90
7411;DHT22;3747;48.628;9.058;2023-07-24T13:28:33;24.70;99.90
7411;DHT22;3747;48.628;9.058;2023-07-24T13:31:11;24.20;99.90
7411;DHT22;3747;48.628;9.058;2023-07-24T13:33:38;24.40;99.90
7411;DHT22;3747;48.628;9.058;2023-07-24T13:36:04;24.60;99.90
7411;DHT22;3747;48.628;9.058;2023-07-24T13:38:33;24.70;99.90
7411;DHT22;3747;48.628;9.058;2023-07-24T13:40:59;24.90;99.90
7411;DHT22;3747;48.628;9.058;2023-07-24T13:43:26;24.50;99.90
7411;DHT22;3747;48.628;9.058;2023-07-24T13:45:53;24.10;99.90
7411;DHT22;3747;48.628;9.058;2023-07-24T13:48:20;23.80;99.90
7411;DHT22;3747;48.628;9.058;2023-07-24T13:50:47;23.30;99.90
7411;DHT22;3747;48.628;9.058;2023-07-24T13:53:13;23.10;99.90
7411;DHT22;3747;48.628;9.058;2023-07-24T13:55:41;22.90;99.90
7411;DHT22;3747;48.628;9.058;2023-07-24T13:58:08;22.70;99.90
7411;DHT22;3747;48.628;9.058;2023-07-24T14:00:35;23.00;99.90
7411;DHT22;3747;48.628;9.058;2023-07-24T14:03:02;23.20;99.90
7411;DHT22;3747;48.628;9.058;2023-07-24T14:05:28;23.50;99.90
7411;DHT22;3747;48.628;9.058;2023-07-24T14:07:55;24.40;99.90
7411;DHT22;3747;48.628;9.058;2023-07-24T14:10:22;25.50;99.90
7411;DHT22;3747;48.628;9.058;2023-07-24T14:12:50;26.20;99.90
7411;DHT22;3747;48.628;9.058;2023-07-24T14:15:16;25.50;99.90
7411;DHT22;3747;48.628;9.058;2023-07-24T14:17:43;24.90;99.90
7411;DHT22;3747;48.628;9.058;2023-07-24T14:20:10;24.60;99.90
7411;DHT22;3747;48.628;9.058;2023-07-24T14:22:37;24.70;99.90
7411;DHT22;3747;48.628;9.058;2023-07-24T14:25:05;24.80;99.90
7411;DHT22;3747;48.628;9.058;2023-07-24T14:27:32;25.20;99.90
7411;DHT22;3747;48.628;9.058;2023-07-24T14:30:00;25.10;99.90
7411;DHT22;3747;48.628;9.058;2023-07-24T14:32:27;25.00;99.90
7411;DHT22;3747;48.628;9.058;2023-07-24T14:34:53;25.00;99.90
7411;DHT22;3747;48.628;9.058;2023-07-24T14:37:20;25.50;99.90
7411;DHT22;3747;48.628;9.058;2023-07-24T14:39:49;25.90;99.90
7411;DHT22;3747;48.628;9.058;2023-07-24T14:42:16;25.90;99.90
7411;DHT22;3747;48.628;9.058;2023-07-24T14:44:42;26.20;99.90
7411;DHT22;3747;48.628;9.058;2023-07-24T14:47:10;26.80;99.90
7411;DHT22;3747;48.628;9.058;2023-07-24T14:49:38;27.40;99.90
7411;DHT22;3747;48.628;9.058;2023-07-24T14:52:05;27.20;99.90
7411;DHT22;3747;48.628;9.058;2023-07-24T14:54:32;27.70;99.90
7411;DHT22;3747;48.628;9.058;2023-07-24T14:56:59;27.70;99.90
7411;DHT22;3747;48.628;9.058;2023-07-24T14:59:27;27.60;99.90
7411;DHT22;3747;48.628;9.058;2023-07-24T15:01:54;27.00;99.90
7411;DHT22;3747;48.628;9.058;2023-07-24T15:04:22;26.80;99.90
7411;DHT22;3747;48.628;9.058;2023-07-24T15:06:49;26.10;99.90
7411;DHT22;3747;48.628;9.058;2023-07-24T15:09:15;25.30;99.90
7411;DHT22;3747;48.628;9.058;2023-07-24T15:11:42;25.90;99.90
7411;DHT22;3747;48.628;9.058;2023-07-24T15:14:09;25.80;99.90
7411;DHT22;3747;48.628;9.058;2023-07-24T15:16:35;25.40;99.90
7411;DHT22;3747;48.628;9.058;2023-07-24T15:19:02;24.90;99.90
7411;DHT22;3747;48.628;9.058;2023-07-24T15:21:30;24.30;99.90
7411;DHT22;3747;48.628;9.058;2023-07-24T15:23:57;23.60;99.90
7411;DHT22;3747;48.628;9.058;2023-07-24T15:26:24;23.10;99.90
7411;DHT22;3747;48.628;9.058;2023-07-24T15:28:51;22.50;99.90
7411;DHT22;3747;48.628;9.058;2023-07-24T15:31:17;22.30;99.90
7411;DHT22;3747;48.628;9.058;2023-07-24T15:33:44;21.90;99.90
7411;DHT22;3747;48.628;9.058;2023-07-24T15:36:11;21.80;99.90
7411;DHT22;3747;48.628;9.058;2023-07-24T15:38:39;21.50;99.90
7411;DHT22;3747;48.628;9.058;2023-07-24T15:41:05;21.40;99.90
7411;DHT22;3747;48.628;9.058;2023-07-24T15:43:32;21.20;99.90
7411;DHT22;3747;48.628;9.058;2023-07-24T15:45:59;21.00;99.90
7411;DHT22;3747;48.628;9.058;2023-07-24T15:48:25;21.00;99.90
7411;DHT22;3747;48.628;9.058;2023-07-24T15:50:52;21.10;99.90
7411;DHT22;3747;48.628;9.058;2023-07-24T15:53:19;21.10;99.90
7411;DHT22;3747;48.628;9.058;2023-07-24T15:55:47;21.10;99.90
7411;DHT22;3747;48.628;9.058;2023-07-24T15:58:14;21.40;99.90
7411;DHT22;3747;48.628;9.058;2023-07-24T16:00:41;21.80;99.90
7411;DHT22;3747;48.628;9.058;2023-07-24T16:03:07;22.30;99.90